sensor_id;sensor_type;location;lat;lon;timestamp;temperature;humidity
14749;DHT22;7466;53.574;9.976;2022-09-12T00:00:27;13.00;99.90
14749;DHT22;7466;53.574;9.976;2022-09-12T00:02:55;13.00;99.90
14749;DHT22;7466;53.574;9.976;2022-09-12T00:05:22;13.00;99.90
14749;DHT22;7466;53.574;9.976;2022-09-12T00:07:51;13.00;99.90
14749;DHT22;7466;53.574;9.976;2022-09-12T00:10:18;12.90;99.90
14749;DHT22;7466;53.574;9.976;2022-09-12T00:12:45;12.90;99.90
14749;DHT22;7466;53.574;9.976;2022-09-12T00:15:12;12.90;99.90
14749;DHT22;7466;53.574;9.976;2022-09-12T00:17:39;12.90;99.90
14749;DHT22;7466;53.574;9.976;2022-09-12T00:20:07;12.90;99.90
14749;DHT22;7466;53.574;9.976;2022-09-12T00:22:37;12.90;99.90
14749;DHT22;7466;53.574;9.976;2022-09-12T00:25:06;12.90;99.90
14749;DHT22;7466;53.574;9.976;2022-09-12T00:27:33;12.90;99.90
14749;DHT22;7466;53.574;9.976;2022-09-12T00:30:00;12.80;99.90
14749;DHT22;7466;53.574;9.976;2022-09-12T00:32:27;12.80;99.90
14749;DHT22;7466;53.574;9.976;2022-09-12T00:34:53;12.80;99.90
14749;DHT22;7466;53.574;9.976;2022-09-12T00:37:21;12.80;99.90
14749;DHT22;7466;53.574;9.976;2022-09-12T00:39:47;12.80;99.90
14749;DHT22;7466;53.574;9.976;2022-09-12T00:42:16;12.80;99.90
14749;DHT22;7466;53.574;9.976;2022-09-12T00:44:46;12.70;99.90
14749;DHT22;7466;53.574;9.976;2022-09-12T00:47:20;12.70;99.90
14749;DHT22;7466;53.574;9.976;2022-09-12T00:49:51;12.70;99.90
14749;DHT22;7466;53.574;9.976;2022-09-12T00:52:24;12.70;99.90
14749;DHT22;7466;53.574;9.976;2022-09-12T00:54:55;12.60;99.90
14749;DHT22;7466;53.574;9.976;2022-09-12T00:57:28;12.70;99.90
14749;DHT22;7466;53.574;9.976;2022-09-12T00:59:58;12.60;99.90
14749;DHT22;7466;53.574;9.976;2022-09-12T01:02:27;12.60;99.90
14749;DHT22;7466;53.574;9.976;2022-09-12T01:04:53;12.60;99.90
14749;DHT22;7466;53.574;9.976;2022-09-12T01:07:21;12.60;99.90
14749;DHT22;7466;53.574;9.976;2022-09-12T01:09:48;12.60;99.90
14749;DHT22;7466;53.574;9.976;2022-09-12T01:12:15;12.60;99.90
14749;DHT22;7466;53.574;9.976;2022-09-12T01:14:44;12.60;99.90
14749;DHT22;7466;53.574;9.976;2022-09-12T01:17:12;12.50;99.90
14749;DHT22;7466;53.574;9.976;2022-09-12T01:19:56;12.50;99.90
14749;DHT22;7466;53.574;9.976;2022-09-12T01:22:50;12.60;99.90
14749;DHT22;7466;53.574;9.976;2022-09-12T01:25:27;12.50;99.90
14749;DHT22;7466;53.574;9.976;2022-09-12T01:28:12;12.50;99.90
14749;DHT22;7466;53.574;9.976;2022-09-12T01:30:48;12.50;99.90
14749;DHT22;7466;53.574;9.976;2022-09-12T01:33:37;12.50;99.90
14749;DHT22;7466;53.574;9.976;2022-09-12T01:39:04;12.40;99.90
14749;DHT22;7466;53.574;9.976;2022-09-12T01:41:40;12.40;99.90
14749;DHT22;7466;53.574;9.976;2022-09-12T01:44:13;12.40;99.90
14749;DHT22;7466;53.574;9.976;2022-09-12T01:46:46;12.30;99.90
14749;DHT22;7466;53.574;9.976;2022-09-12T01:49:18;12.30;99.90
14749;DHT22;7466;53.574;9.976;2022-09-12T01:51:54;12.30;99.90
14749;DHT22;7466;53.574;9.976;2022-09-12T01:54:26;12.20;99.90
14749;DHT22;7466;53.574;9.976;2022-09-12T01:56:58;12.30;99.90
14749;DHT22;7466;53.574;9.976;2022-09-12T01:59:29;12.30;99.90
14749;DHT22;7466;53.574;9.976;2022-09-12T02:02:03;12.40;99.90
14749;DHT22;7466;53.574;9.976;2022-09-12T02:04:34;12.30;99.90
14749;DHT22;7466;53.574;9.976;2022-09-12T02:07:09;12.30;99.90
14749;DHT22;7466;53.574;9.976;2022-09-12T02:09:39;12.30;99.90
14749;DHT22;7466;53.574;9.976;2022-09-12T02:12:10;12.30;99.90
14749;DHT22;7466;53.574;9.976;2022-09-12T02:14:41;12.20;99.90
14749;DHT22;7466;53.574;9.976;2022-09-12T02:17:12;12.20;99.90
14749;DHT22;7466;53.574;9.976;2022-09-12T02:19:44;12.20;99.90
14749;DHT22;7466;53.574;9.976;2022-09-12T02:22:16;12.10;99.90
14749;DHT22;7466;53.574;9.976;2022-09-12T02:24:46;12.10;99.90
14749;DHT22;7466;53.574;9.976;2022-09-12T02:27:15;12.10;99.90
14749;DHT22;7466;53.574;9.976;2022-09-12T02:29:43;12.00;99.90
14749;DHT22;7466;53.574;9.976;2022-09-12T02:32:20;12.10;99.90
14749;DHT22;7466;53.574;9.976;2022-09-12T02:34:53;12.10;99.90
14749;DHT22;7466;53.574;9.976;2022-09-12T02:37:31;12.10;99.90
14749;DHT22;7466;53.574;9.976;2022-09-12T02:39:59;12.10;99.90
14749;DHT22;7466;53.574;9.976;2022-09-12T02:42:26;12.10;99.90
14749;DHT22;7466;53.574;9.976;2022-09-12T02:44:54;12.10;99.90
14749;DHT22;7466;53.574;9.976;2022-09-12T02:47:27;12.10;99.90
14749;DHT22;7466;53.574;9.976;2022-09-12T02:49:55;12.10;99.90
14749;DHT22;7466;53.574;9.976;2022-09-12T02:52:23;12.10;99.90
14749;DHT22;7466;53.574;9.976;2022-09-12T02:54:51;12.10;99.90
14749;DHT22;7466;53.574;9.976;2022-09-12T02:57:19;12.10;99.90
14749;DHT22;7466;53.574;9.976;2022-09-12T02:59:47;12.20;99.90
14749;DHT22;7466;53.574;9.976;2022-09-12T03:02:26;12.20;99.90
14749;DHT22;7466;53.574;9.976;2022-09-12T03:05:19;12.10;99.90
14749;DHT22;7466;53.574;9.976;2022-09-12T03:08:13;12.20;99.90
14749;DHT22;7466;53.574;9.976;2022-09-12T03:11:13;12.20;99.90
14749;DHT22;7466;53.574;9.976;2022-09-12T03:13:49;12.20;99.90
14749;DHT22;7466;53.574;9.976;2022-09-12T03:16:24;12.20;99.90
14749;DHT22;7466;53.574;9.976;2022-09-12T03:18:59;12.10;99.90
14749;DHT22;7466;53.574;9.976;2022-09-12T03:21:30;12.10;99.90
14749;DHT22;7466;53.574;9.976;2022-09-12T03:24:08;12.10;99.90
14749;DHT22;7466;53.574;9.976;2022-09-12T03:26:41;12.10;99.90
14749;DHT22;7466;53.574;9.976;2022-09-12T03:29:09;12.10;99.90
14749;DHT22;7466;53.574;9.976;2022-09-12T03:31:47;12.10;99.90
14749;DHT22;7466;53.574;9.976;2022-09-12T03:34:15;12.10;99.90
14749;DHT22;7466;53.574;9.976;2022-09-12T03:36:42;12.00;99.90
14749;DHT22;7466;53.574;9.976;2022-09-12T03:39:08;12.00;99.90
14749;DHT22;7466;53.574;9.976;2022-09-12T03:41:35;12.00;99.90
14749;DHT22;7466;53.574;9.976;2022-09-12T03:44:02;12.00;99.90
14749;DHT22;7466;53.574;9.976;2022-09-12T03:46:28;11.90;99.90
14749;DHT22;7466;53.574;9.976;2022-09-12T03:48:55;12.00;99.90
14749;DHT22;7466;53.574;9.976;2022-09-12T03:51:23;12.00;99.90
14749;DHT22;7466;53.574;9.976;2022-09-12T03:53:50;11.90;99.90
14749;DHT22;7466;53.574;9.976;2022-09-12T03:56:17;11.90;99.90
14749;DHT22;7466;53.574;9.976;2022-09-12T03:58:44;11.90;99.90
14749;DHT22;7466;53.574;9.976;2022-09-12T04:01:13;11.90;99.90
14749;DHT22;7466;53.574;9.976;2022-09-12T04:03:40;11.90;99.90
14749;DHT22;7466;53.574;9.976;2022-09-12T04:06:09;11.90;99.90
14749;DHT22;7466;53.574;9.976;2022-09-12T04:08:37;11.90;99.90
14749;DHT22;7466;53.574;9.976;2022-09-12T04:11:06;11.80;99.90
14749;DHT22;7466;53.574;9.976;2022-09-12T04:13:33;11.80;99.90
14749;DHT22;7466;53.574;9.976;2022-09-12T04:16:00;11.90;99.90
14749;DHT22;7466;53.574;9.976;2022-09-12T04:18:27;11.90;99.90
14749;DHT22;7466;53.574;9.976;2022-09-12T04:20:54;11.90;99.90
14749;DHT22;7466;53.574;9.976;2022-09-12T04:23:21;11.90;99.90
14749;DHT22;7466;53.574;9.976;2022-09-12T04:25:56;11.80;99.90
14749;DHT22;7466;53.574;9.976;2022-09-12T04:28:24;11.80;99.90
14749;DHT22;7466;53.574;9.976;2022-09-12T04:30:51;11.80;99.90
14749;DHT22;7466;53.574;9.976;2022-09-12T04:33:18;11.80;99.90
14749;DHT22;7466;53.574;9.976;2022-09-12T04:35:44;11.90;99.90
14749;DHT22;7466;53.574;9.976;2022-09-12T04:38:11;11.90;99.90
14749;DHT22;7466;53.574;9.976;2022-09-12T04:40:38;11.90;99.90
14749;DHT22;7466;53.574;9.976;2022-09-12T04:43:07;11.90;99.90
14749;DHT22;7466;53.574;9.976;2022-09-12T04:45:34;11.90;99.90
14749;DHT22;7466;53.574;9.976;2022-09-12T04:48:01;12.00;99.90
14749;DHT22;7466;53.574;9.976;2022-09-12T04:50:27;12.00;99.90
14749;DHT22;7466;53.574;9.976;2022-09-12T04:52:54;12.00;99.90
14749;DHT22;7466;53.574;9.976;2022-09-12T04:55:22;12.00;99.90
14749;DHT22;7466;53.574;9.976;2022-09-12T04:57:49;12.00;99.90
14749;DHT22;7466;53.574;9.976;2022-09-12T05:00:18;12.00;99.90
14749;DHT22;7466;53.574;9.976;2022-09-12T05:02:45;12.00;99.90
14749;DHT22;7466;53.574;9.976;2022-09-12T05:05:12;12.10;99.90
14749;DHT22;7466;53.574;9.976;2022-09-12T05:07:39;12.10;99.90
14749;DHT22;7466;53.574;9.976;2022-09-12T05:10:06;12.10;99.90
14749;DHT22;7466;53.574;9.976;2022-09-12T05:12:33;12.10;99.90
14749;DHT22;7466;53.574;9.976;2022-09-12T05:15:00;12.20;99.90
14749;DHT22;7466;53.574;9.976;2022-09-12T05:17:29;12.20;99.90
14749;DHT22;7466;53.574;9.976;2022-09-12T05:19:56;12.20;99.90
14749;DHT22;7466;53.574;9.976;2022-09-12T05:22:22;12.20;99.90
14749;DHT22;7466;53.574;9.976;2022-09-12T05:24:50;12.50;99.90
14749;DHT22;7466;53.574;9.976;2022-09-12T05:27:17;12.60;99.90
14749;DHT22;7466;53.574;9.976;2022-09-12T05:29:44;12.70;99.90
14749;DHT22;7466;53.574;9.976;2022-09-12T05:32:11;12.60;99.90
14749;DHT22;7466;53.574;9.976;2022-09-12T05:34:39;12.60;99.90
14749;DHT22;7466;53.574;9.976;2022-09-12T05:37:06;12.60;99.90
14749;DHT22;7466;53.574;9.976;2022-09-12T05:39:32;12.60;99.90
14749;DHT22;7466;53.574;9.976;2022-09-12T05:41:59;12.60;99.90
14749;DHT22;7466;53.574;9.976;2022-09-12T05:44:26;12.70;99.90
14749;DHT22;7466;53.574;9.976;2022-09-12T05:46:53;12.70;99.90
14749;DHT22;7466;53.574;9.976;2022-09-12T05:49:20;12.70;99.90
14749;DHT22;7466;53.574;9.976;2022-09-12T05:51:48;12.80;99.90
14749;DHT22;7466;53.574;9.976;2022-09-12T05:54:17;12.80;99.90
14749;DHT22;7466;53.574;9.976;2022-09-12T05:56:45;13.00;99.90
14749;DHT22;7466;53.574;9.976;2022-09-12T05:59:14;13.00;99.90
14749;DHT22;7466;53.574;9.976;2022-09-12T06:01:41;13.10;99.90
14749;DHT22;7466;53.574;9.976;2022-09-12T06:04:09;13.10;99.90
14749;DHT22;7466;53.574;9.976;2022-09-12T06:06:38;13.10;99.90
14749;DHT22;7466;53.574;9.976;2022-09-12T06:09:07;13.20;99.90
14749;DHT22;7466;53.574;9.976;2022-09-12T06:11:36;13.20;99.90
14749;DHT22;7466;53.574;9.976;2022-09-12T06:14:05;13.30;99.90
14749;DHT22;7466;53.574;9.976;2022-09-12T06:16:34;13.40;99.90
14749;DHT22;7466;53.574;9.976;2022-09-12T06:19:03;13.40;99.90
14749;DHT22;7466;53.574;9.976;2022-09-12T06:21:31;13.50;99.90
14749;DHT22;7466;53.574;9.976;2022-09-12T06:24:00;13.50;99.90
14749;DHT22;7466;53.574;9.976;2022-09-12T06:26:28;13.60;99.90
14749;DHT22;7466;53.574;9.976;2022-09-12T06:28:57;13.60;99.90
14749;DHT22;7466;53.574;9.976;2022-09-12T06:31:26;13.70;99.90
14749;DHT22;7466;53.574;9.976;2022-09-12T06:33:55;13.80;99.90
14749;DHT22;7466;53.574;9.976;2022-09-12T06:36:24;13.80;99.90
14749;DHT22;7466;53.574;9.976;2022-09-12T06:38:55;13.90;99.90
14749;DHT22;7466;53.574;9.976;2022-09-12T06:41:22;14.00;99.90
14749;DHT22;7466;53.574;9.976;2022-09-12T06:43:51;14.20;99.90
14749;DHT22;7466;53.574;9.976;2022-09-12T06:46:18;14.20;99.90
14749;DHT22;7466;53.574;9.976;2022-09-12T06:48:45;14.30;99.90
14749;DHT22;7466;53.574;9.976;2022-09-12T06:51:13;14.40;99.90
14749;DHT22;7466;53.574;9.976;2022-09-12T06:53:41;14.50;99.90
14749;DHT22;7466;53.574;9.976;2022-09-12T06:56:10;14.60;99.90
14749;DHT22;7466;53.574;9.976;2022-09-12T06:58:38;14.70;99.90
14749;DHT22;7466;53.574;9.976;2022-09-12T07:01:08;14.90;99.90
14749;DHT22;7466;53.574;9.976;2022-09-12T07:03:35;14.90;99.90
14749;DHT22;7466;53.574;9.976;2022-09-12T07:06:03;15.00;99.90
14749;DHT22;7466;53.574;9.976;2022-09-12T07:08:30;15.10;99.90
14749;DHT22;7466;53.574;9.976;2022-09-12T07:10:58;15.20;99.90
14749;DHT22;7466;53.574;9.976;2022-09-12T07:13:25;15.40;99.90
14749;DHT22;7466;53.574;9.976;2022-09-12T07:15:52;15.40;99.90
14749;DHT22;7466;53.574;9.976;2022-09-12T07:18:20;15.50;99.90
14749;DHT22;7466;53.574;9.976;2022-09-12T07:20:48;15.60;99.90
14749;DHT22;7466;53.574;9.976;2022-09-12T07:23:14;15.70;99.90
14749;DHT22;7466;53.574;9.976;2022-09-12T07:25:41;15.80;99.90
14749;DHT22;7466;53.574;9.976;2022-09-12T07:28:08;15.80;99.90
14749;DHT22;7466;53.574;9.976;2022-09-12T07:30:35;15.90;99.90
14749;DHT22;7466;53.574;9.976;2022-09-12T07:33:02;16.00;99.90
14749;DHT22;7466;53.574;9.976;2022-09-12T07:35:32;16.10;99.90
14749;DHT22;7466;53.574;9.976;2022-09-12T07:37:59;16.20;99.90
14749;DHT22;7466;53.574;9.976;2022-09-12T07:40:26;16.20;99.90
14749;DHT22;7466;53.574;9.976;2022-09-12T07:42:53;16.20;99.90
14749;DHT22;7466;53.574;9.976;2022-09-12T07:45:20;16.20;99.90
14749;DHT22;7466;53.574;9.976;2022-09-12T07:47:47;16.20;99.90
14749;DHT22;7466;53.574;9.976;2022-09-12T07:50:14;16.30;99.90
14749;DHT22;7466;53.574;9.976;2022-09-12T07:52:42;16.40;99.90
14749;DHT22;7466;53.574;9.976;2022-09-12T07:55:08;16.60;99.90
14749;DHT22;7466;53.574;9.976;2022-09-12T07:57:35;16.70;99.90
14749;DHT22;7466;53.574;9.976;2022-09-12T08:00:04;16.80;99.90
14749;DHT22;7466;53.574;9.976;2022-09-12T08:02:32;16.80;99.90
14749;DHT22;7466;53.574;9.976;2022-09-12T08:04:59;16.90;99.90
14749;DHT22;7466;53.574;9.976;2022-09-12T08:07:26;17.10;99.90
14749;DHT22;7466;53.574;9.976;2022-09-12T08:09:54;17.20;99.90
14749;DHT22;7466;53.574;9.976;2022-09-12T08:12:21;17.30;99.90
14749;DHT22;7466;53.574;9.976;2022-09-12T08:14:48;17.40;99.90
14749;DHT22;7466;53.574;9.976;2022-09-12T08:17:14;17.70;99.90
14749;DHT22;7466;53.574;9.976;2022-09-12T08:19:41;17.80;99.90
14749;DHT22;7466;53.574;9.976;2022-09-12T08:22:09;18.00;99.90
14749;DHT22;7466;53.574;9.976;2022-09-12T08:24:36;18.10;99.90
14749;DHT22;7466;53.574;9.976;2022-09-12T08:27:06;18.20;99.90
14749;DHT22;7466;53.574;9.976;2022-09-12T08:29:32;18.40;99.90
14749;DHT22;7466;53.574;9.976;2022-09-12T08:31:59;18.40;99.90
14749;DHT22;7466;53.574;9.976;2022-09-12T08:34:26;18.50;99.90
14749;DHT22;7466;53.574;9.976;2022-09-12T08:36:52;18.60;99.90
14749;DHT22;7466;53.574;9.976;2022-09-12T08:39:20;18.60;99.90
14749;DHT22;7466;53.574;9.976;2022-09-12T08:41:48;18.60;1.00
14749;DHT22;7466;53.574;9.976;2022-09-12T08:44:40;18.70;1.00
14749;DHT22;7466;53.574;9.976;2022-09-12T08:47:18;19.00;1.00
14749;DHT22;7466;53.574;9.976;2022-09-12T08:50:09;19.20;1.00
14749;DHT22;7466;53.574;9.976;2022-09-12T08:52:42;19.50;1.00
14749;DHT22;7466;53.574;9.976;2022-09-12T08:55:25;19.60;1.00
14749;DHT22;7466;53.574;9.976;2022-09-12T08:57:53;19.80;1.00
14749;DHT22;7466;53.574;9.976;2022-09-12T09:00:21;19.70;1.00
14749;DHT22;7466;53.574;9.976;2022-09-12T09:03:03;19.70;1.00
14749;DHT22;7466;53.574;9.976;2022-09-12T09:05:44;19.70;1.00
14749;DHT22;7466;53.574;9.976;2022-09-12T09:08:20;20.00;1.00
14749;DHT22;7466;53.574;9.976;2022-09-12T09:10:52;20.00;1.00
14749;DHT22;7466;53.574;9.976;2022-09-12T09:13:32;19.90;1.00
14749;DHT22;7466;53.574;9.976;2022-09-12T09:16:24;20.00;1.00
14749;DHT22;7466;53.574;9.976;2022-09-12T09:18:53;20.30;1.00
14749;DHT22;7466;53.574;9.976;2022-09-12T09:21:24;20.50;1.00
14749;DHT22;7466;53.574;9.976;2022-09-12T09:23:58;20.60;1.00
14749;DHT22;7466;53.574;9.976;2022-09-12T09:26:32;20.60;1.00
14749;DHT22;7466;53.574;9.976;2022-09-12T09:29:03;20.80;1.00
14749;DHT22;7466;53.574;9.976;2022-09-12T09:31:37;20.90;1.00
14749;DHT22;7466;53.574;9.976;2022-09-12T09:34:11;21.30;1.00
14749;DHT22;7466;53.574;9.976;2022-09-12T09:36:47;21.70;1.00
14749;DHT22;7466;53.574;9.976;2022-09-12T09:39:22;22.00;1.00
14749;DHT22;7466;53.574;9.976;2022-09-12T09:41:59;21.90;1.00
14749;DHT22;7466;53.574;9.976;2022-09-12T09:44:30;22.00;1.00
14749;DHT22;7466;53.574;9.976;2022-09-12T09:46:59;22.10;99.90
14749;DHT22;7466;53.574;9.976;2022-09-12T09:49:29;21.80;99.90
14749;DHT22;7466;53.574;9.976;2022-09-12T09:51:58;21.70;99.90
14749;DHT22;7466;53.574;9.976;2022-09-12T09:54:27;21.60;1.00
14749;DHT22;7466;53.574;9.976;2022-09-12T09:56:55;21.50;99.90
14749;DHT22;7466;53.574;9.976;2022-09-12T09:59:26;21.40;99.90
14749;DHT22;7466;53.574;9.976;2022-09-12T10:01:55;21.30;99.90
14749;DHT22;7466;53.574;9.976;2022-09-12T10:04:25;21.10;99.90
14749;DHT22;7466;53.574;9.976;2022-09-12T10:06:53;21.30;99.90
14749;DHT22;7466;53.574;9.976;2022-09-12T10:09:24;21.30;99.90
14749;DHT22;7466;53.574;9.976;2022-09-12T10:11:52;21.30;99.90
14749;DHT22;7466;53.574;9.976;2022-09-12T10:14:32;21.40;99.90
14749;DHT22;7466;53.574;9.976;2022-09-12T10:17:00;21.70;99.90
14749;DHT22;7466;53.574;9.976;2022-09-12T10:19:38;21.60;99.90
14749;DHT22;7466;53.574;9.976;2022-09-12T10:22:06;21.90;99.90
14749;DHT22;7466;53.574;9.976;2022-09-12T10:24:34;21.80;99.90
14749;DHT22;7466;53.574;9.976;2022-09-12T10:27:08;21.80;99.90
14749;DHT22;7466;53.574;9.976;2022-09-12T10:29:41;21.70;99.90
14749;DHT22;7466;53.574;9.976;2022-09-12T10:32:18;22.00;99.90
14749;DHT22;7466;53.574;9.976;2022-09-12T10:34:53;22.20;99.90
14749;DHT22;7466;53.574;9.976;2022-09-12T10:37:25;21.90;99.90
14749;DHT22;7466;53.574;9.976;2022-09-12T10:39:54;22.10;99.90
14749;DHT22;7466;53.574;9.976;2022-09-12T10:42:44;22.20;99.90
14749;DHT22;7466;53.574;9.976;2022-09-12T10:45:20;22.40;99.90
14749;DHT22;7466;53.574;9.976;2022-09-12T10:47:48;22.20;99.90
14749;DHT22;7466;53.574;9.976;2022-09-12T10:50:28;22.10;99.90
14749;DHT22;7466;53.574;9.976;2022-09-12T10:53:13;22.20;99.90
14749;DHT22;7466;53.574;9.976;2022-09-12T10:58:52;22.60;99.90
14749;DHT22;7466;53.574;9.976;2022-09-12T11:01:36;22.50;99.90
14749;DHT22;7466;53.574;9.976;2022-09-12T11:04:19;22.60;99.90
14749;DHT22;7466;53.574;9.976;2022-09-12T11:06:54;22.90;99.90
14749;DHT22;7466;53.574;9.976;2022-09-12T11:09:27;22.60;99.90
14749;DHT22;7466;53.574;9.976;2022-09-12T11:12:04;22.70;99.90
14749;DHT22;7466;53.574;9.976;2022-09-12T11:14:42;22.80;99.90
14749;DHT22;7466;53.574;9.976;2022-09-12T11:17:23;22.80;99.90
14749;DHT22;7466;53.574;9.976;2022-09-12T11:23:17;22.60;99.90
14749;DHT22;7466;53.574;9.976;2022-09-12T11:25:51;22.80;99.90
14749;DHT22;7466;53.574;9.976;2022-09-12T11:28:32;22.70;99.90
14749;DHT22;7466;53.574;9.976;2022-09-12T11:31:24;22.40;99.90
14749;DHT22;7466;53.574;9.976;2022-09-12T11:33:58;22.50;99.90
14749;DHT22;7466;53.574;9.976;2022-09-12T11:36:32;22.50;99.90
14749;DHT22;7466;53.574;9.976;2022-09-12T11:39:11;22.50;99.90
14749;DHT22;7466;53.574;9.976;2022-09-12T11:41:41;22.50;99.90
14749;DHT22;7466;53.574;9.976;2022-09-12T11:44:14;22.90;99.90
14749;DHT22;7466;53.574;9.976;2022-09-12T11:46:43;23.10;99.90
14749;DHT22;7466;53.574;9.976;2022-09-12T11:49:22;23.20;99.90
14749;DHT22;7466;53.574;9.976;2022-09-12T11:51:55;23.10;99.90
14749;DHT22;7466;53.574;9.976;2022-09-12T11:54:28;22.90;99.90
14749;DHT22;7466;53.574;9.976;2022-09-12T11:57:03;22.80;99.90
14749;DHT22;7466;53.574;9.976;2022-09-12T11:59:37;22.70;99.90
14749;DHT22;7466;53.574;9.976;2022-09-12T12:02:11;22.90;99.90
14749;DHT22;7466;53.574;9.976;2022-09-12T12:04:43;23.00;99.90
14749;DHT22;7466;53.574;9.976;2022-09-12T12:07:12;22.90;99.90
14749;DHT22;7466;53.574;9.976;2022-09-12T12:12:20;22.70;99.90
14749;DHT22;7466;53.574;9.976;2022-09-12T12:14:49;22.70;99.90
14749;DHT22;7466;53.574;9.976;2022-09-12T12:17:19;22.80;99.90
14749;DHT22;7466;53.574;9.976;2022-09-12T12:19:56;23.00;99.90
14749;DHT22;7466;53.574;9.976;2022-09-12T12:22:24;23.30;99.90
14749;DHT22;7466;53.574;9.976;2022-09-12T12:25:23;23.40;1.00
14749;DHT22;7466;53.574;9.976;2022-09-12T12:27:55;23.40;99.90
14749;DHT22;7466;53.574;9.976;2022-09-12T12:34:00;23.90;99.90
14749;DHT22;7466;53.574;9.976;2022-09-12T12:36:33;23.60;99.90
14749;DHT22;7466;53.574;9.976;2022-09-12T12:48:14;23.60;99.90
14749;DHT22;7466;53.574;9.976;2022-09-12T12:50:42;23.60;1.00
14749;DHT22;7466;53.574;9.976;2022-09-12T12:53:17;23.80;99.90
14749;DHT22;7466;53.574;9.976;2022-09-12T12:55:47;23.80;99.90
14749;DHT22;7466;53.574;9.976;2022-09-12T12:58:26;23.60;99.90
14749;DHT22;7466;53.574;9.976;2022-09-12T13:01:08;23.40;99.90
14749;DHT22;7466;53.574;9.976;2022-09-12T13:03:40;23.30;99.90
14749;DHT22;7466;53.574;9.976;2022-09-12T13:06:21;23.50;99.90
14749;DHT22;7466;53.574;9.976;2022-09-12T13:08:57;23.20;99.90
14749;DHT22;7466;53.574;9.976;2022-09-12T13:11:31;23.20;99.90
14749;DHT22;7466;53.574;9.976;2022-09-12T13:14:00;22.90;99.90
14749;DHT22;7466;53.574;9.976;2022-09-12T13:16:32;22.80;99.90
14749;DHT22;7466;53.574;9.976;2022-09-12T13:19:06;22.80;99.90
14749;DHT22;7466;53.574;9.976;2022-09-12T13:21:36;23.30;99.90
14749;DHT22;7466;53.574;9.976;2022-09-12T13:24:11;23.30;99.90
14749;DHT22;7466;53.574;9.976;2022-09-12T13:26:41;23.60;99.90
14749;DHT22;7466;53.574;9.976;2022-09-12T13:29:09;23.60;1.00
14749;DHT22;7466;53.574;9.976;2022-09-12T13:31:37;23.90;99.90
14749;DHT22;7466;53.574;9.976;2022-09-12T13:34:06;24.00;99.90
14749;DHT22;7466;53.574;9.976;2022-09-12T13:36:55;24.20;99.90
14749;DHT22;7466;53.574;9.976;2022-09-12T13:39:26;24.40;99.90
14749;DHT22;7466;53.574;9.976;2022-09-12T13:42:19;23.90;99.90
14749;DHT22;7466;53.574;9.976;2022-09-12T13:44:53;24.20;99.90
14749;DHT22;7466;53.574;9.976;2022-09-12T13:47:25;23.70;99.90
14749;DHT22;7466;53.574;9.976;2022-09-12T13:49:56;23.20;99.90
14749;DHT22;7466;53.574;9.976;2022-09-12T13:52:25;23.00;99.90
14749;DHT22;7466;53.574;9.976;2022-09-12T13:54:55;22.70;99.90
14749;DHT22;7466;53.574;9.976;2022-09-12T13:57:31;22.70;99.90
14749;DHT22;7466;53.574;9.976;2022-09-12T13:59:59;22.70;99.90
14749;DHT22;7466;53.574;9.976;2022-09-12T14:02:33;22.60;99.90
14749;DHT22;7466;53.574;9.976;2022-09-12T14:05:11;22.70;99.90
14749;DHT22;7466;53.574;9.976;2022-09-12T14:07:44;22.80;99.90
14749;DHT22;7466;53.574;9.976;2022-09-12T14:10:21;22.70;99.90
14749;DHT22;7466;53.574;9.976;2022-09-12T14:12:48;22.60;99.90
14749;DHT22;7466;53.574;9.976;2022-09-12T14:15:19;22.80;99.90
14749;DHT22;7466;53.574;9.976;2022-09-12T14:17:50;22.70;99.90
14749;DHT22;7466;53.574;9.976;2022-09-12T14:20:19;23.00;99.90
14749;DHT22;7466;53.574;9.976;2022-09-12T14:22:48;23.10;99.90
14749;DHT22;7466;53.574;9.976;2022-09-12T14:25:17;23.10;99.90
14749;DHT22;7466;53.574;9.976;2022-09-12T14:27:46;23.10;99.90
14749;DHT22;7466;53.574;9.976;2022-09-12T14:30:21;23.10;99.90
14749;DHT22;7466;53.574;9.976;2022-09-12T14:33:03;23.50;99.90
14749;DHT22;7466;53.574;9.976;2022-09-12T14:35:31;23.40;99.90
14749;DHT22;7466;53.574;9.976;2022-09-12T14:38:05;23.20;99.90
14749;DHT22;7466;53.574;9.976;2022-09-12T14:40:39;23.30;99.90
14749;DHT22;7466;53.574;9.976;2022-09-12T14:43:17;23.40;99.90
14749;DHT22;7466;53.574;9.976;2022-09-12T14:45:51;23.60;99.90
14749;DHT22;7466;53.574;9.976;2022-09-12T14:48:19;23.40;99.90
14749;DHT22;7466;53.574;9.976;2022-09-12T14:50:49;23.40;99.90
14749;DHT22;7466;53.574;9.976;2022-09-12T14:53:23;23.20;99.90
14749;DHT22;7466;53.574;9.976;2022-09-12T14:55:52;22.90;99.90
14749;DHT22;7466;53.574;9.976;2022-09-12T14:58:23;22.80;99.90
14749;DHT22;7466;53.574;9.976;2022-09-12T15:00:53;22.50;99.90
14749;DHT22;7466;53.574;9.976;2022-09-12T15:03:26;22.50;99.90
14749;DHT22;7466;53.574;9.976;2022-09-12T15:05:55;22.40;99.90
14749;DHT22;7466;53.574;9.976;2022-09-12T15:08:22;22.30;99.90
14749;DHT22;7466;53.574;9.976;2022-09-12T15:10:49;22.40;99.90
14749;DHT22;7466;53.574;9.976;2022-09-12T15:13:19;22.70;99.90
14749;DHT22;7466;53.574;9.976;2022-09-12T15:15:48;22.70;99.90
14749;DHT22;7466;53.574;9.976;2022-09-12T15:18:15;22.80;99.90
14749;DHT22;7466;53.574;9.976;2022-09-12T15:20:44;22.70;67.50
14749;DHT22;7466;53.574;9.976;2022-09-12T15:23:18;22.50;99.90
14749;DHT22;7466;53.574;9.976;2022-09-12T15:25:46;22.50;98.60
14749;DHT22;7466;53.574;9.976;2022-09-12T15:28:17;22.60;99.90
14749;DHT22;7466;53.574;9.976;2022-09-12T15:30:46;22.60;99.90
14749;DHT22;7466;53.574;9.976;2022-09-12T15:33:14;22.60;99.90
14749;DHT22;7466;53.574;9.976;2022-09-12T15:35:41;22.50;22.40
14749;DHT22;7466;53.574;9.976;2022-09-12T15:38:07;22.40;99.90
14749;DHT22;7466;53.574;9.976;2022-09-12T15:40:36;22.40;99.90
14749;DHT22;7466;53.574;9.976;2022-09-12T15:43:03;22.50;99.90
14749;DHT22;7466;53.574;9.976;2022-09-12T15:45:31;22.70;99.90
14749;DHT22;7466;53.574;9.976;2022-09-12T15:47:58;22.60;99.90
14749;DHT22;7466;53.574;9.976;2022-09-12T15:50:25;22.50;99.90
14749;DHT22;7466;53.574;9.976;2022-09-12T15:52:53;22.40;99.10
14749;DHT22;7466;53.574;9.976;2022-09-12T15:55:21;22.40;84.40
14749;DHT22;7466;53.574;9.976;2022-09-12T15:57:50;22.20;1.00
14749;DHT22;7466;53.574;9.976;2022-09-12T16:00:17;22.10;1.00
14749;DHT22;7466;53.574;9.976;2022-09-12T16:02:45;22.20;12.80
14749;DHT22;7466;53.574;9.976;2022-09-12T16:05:13;22.10;5.00
14749;DHT22;7466;53.574;9.976;2022-09-12T16:07:40;22.10;99.90
14749;DHT22;7466;53.574;9.976;2022-09-12T16:10:12;22.00;99.90
14749;DHT22;7466;53.574;9.976;2022-09-12T16:12:39;22.10;99.90
14749;DHT22;7466;53.574;9.976;2022-09-12T16:15:11;22.10;99.90
14749;DHT22;7466;53.574;9.976;2022-09-12T16:17:39;22.00;64.20
14749;DHT22;7466;53.574;9.976;2022-09-12T16:20:06;22.00;91.30
14749;DHT22;7466;53.574;9.976;2022-09-12T16:22:34;22.00;99.90
14749;DHT22;7466;53.574;9.976;2022-09-12T16:25:00;22.00;90.10
14749;DHT22;7466;53.574;9.976;2022-09-12T16:27:27;22.00;99.90
14749;DHT22;7466;53.574;9.976;2022-09-12T16:29:54;21.90;99.90
14749;DHT22;7466;53.574;9.976;2022-09-12T16:32:22;21.70;99.90
14749;DHT22;7466;53.574;9.976;2022-09-12T16:34:49;21.60;99.90